Portada
METAR-TAF:

METAR-TAF

Aeroports :

Curaçao, Antilles Neerlandeses

latitud: 12-12N, longitud: 068-58W, altitud: 9 m

Observació

L'informe es va fer fa 5 minuts, a les 14:00 UTC
Vent 15 kt del Est
Temperatura 29°C
Humitat 74%
Pressió 1014 hPa
Visibilitat 10 km o més
Escasses núvols a una alçada de 2000 ft

METAR: TNCC 161400Z 10015KT 9999 FEW020 29/24 Q1014 NOSIG

Hora: 10:05 (14:05 UTC)

Pronòstic

L'informe es va fer fa 3 hores i 5 minuts, a les 11:00 UTC
Pronòstic vàlid del 16 a les 12 UTC al 17 a les 12 UTC
Vent 14 kt del Est
Visibilitat 10 km o més
Núvols disperses a una alçada de 2000 ft
Probabilitat 40% :
Temporalment
l' 16 a les 12 UTC al 16 a les 14 UTC
Visibilitat: 8000 m
Cel ennuvolat a una alçada de 1500 ft
xàfecs de pluja

TAF: TNCC 161100Z 1612/1712 09014KT 9999 SCT020 PROB40 TEMPO 1612/1614 8000 SHRA BKN015

Observacions i pronòstics meteorològics de més de 4000 aeroports (METAR i TAF).

Les estacions disponibles són els punts grocs i vermells al mapa.

Posi el ratolí al punt desitjat per veure el nom de l'estació.

Feu clic per veure les observacions i els pronòstics meteorològics.

Per canviar el mapa: feu clic els botons verds amb una creu de color negre per apropar; al botó verd amb un guió per allunyar la imatge; o en les fletxes verdes per a mapes adjacents.


METAR-TAF: